EDT,Max TemperatureF,Mean TemperatureF,Min TemperatureF,Max Dew PointF,MeanDew PointF,Min DewpointF,Max Humidity, Mean Humidity, Min Humidity, Max Sea Level PressureIn, Mean Sea Level PressureIn, Min Sea Level PressureIn, Max VisibilityMiles, Mean VisibilityMiles, Min VisibilityMiles, Max Wind SpeedMPH, Mean Wind SpeedMPH, Max Gust SpeedMPH,PrecipitationIn, CloudCover, Events, WindDirDegrees
2012-5-1,80,78,75,73,72,71,94,87,79,30.02,29.97,29.93,10,10,7,26,16,32,0.08,5,Rain,102
2012-5-2,82,79,76,74,72,70,94,84,74,30.05,30.01,29.96,10,10,10,23,17,29,0.00,2,,104
2012-5-3,83,80,76,74,72,70,82,78,74,30.08,30.04,29.99,10,10,10,21,15,25,T,2,,108
2012-5-4,84,80,76,72,70,66,82,74,65,30.08,30.03,30.00,10,10,10,17,12,22,T,2,Rain,105
2012-5-5,82,79,76,70,67,65,74,68,62,30.03,29.99,29.96,10,10,10,16,10,20,0.00,1,,121
2012-5-6,82,80,77,70,68,66,76,69,62,30.01,29.96,29.92,10,10,10,16,9,21,0.00,1,,140
2012-5-7,82,80,77,72,71,70,79,77,74,29.96,29.92,29.88,10,10,10,12,7,17,0.00,3,,144
2012-5-8,83,80,77,73,72,71,79,74,69,29.94,29.91,29.88,10,10,10,12,6,15,0.00,1,,151
2012-5-9,84,82,79,75,73,70,85,73,61,29.94,29.90,29.85,10,10,10,14,7,17,T,1,,213
2012-5-10,84,82,79,73,72,71,79,74,69,29.94,29.88,29.84,10,10,10,15,8,20,T,3,,291
2012-5-11,84,81,77,74,72,70,85,75,65,30.06,29.97,29.92,10,10,10,9,5,15,0.00,1,,60
2012-5-12,86,83,79,75,73,68,85,76,67,30.12,30.08,30.04,10,10,10,21,14,26,0.00,1,,101
2012-5-13,85,82,79,72,72,70,79,72,65,30.11,30.06,29.99,10,10,10,21,14,25,0.00,1,,103
2012-5-14,85,82,78,73,72,70,79,72,65,30.04,30.00,29.94,10,10,10,14,8,17,0.00,1,,113
2012-5-15,84,81,77,74,73,72,85,80,74,30.03,29.99,29.95,10,10,10,16,5,23,T,2,,154
2012-5-16,83,80,76,75,72,70,85,77,69,30.03,29.98,29.92,10,10,10,16,6,23,T,2,Thunderstorm,87
2012-5-17,80,75,70,75,72,68,93,84,74,29.98,29.94,29.91,10,8,0,18,5,31,2.66,7,Fog-Rain-Thunderstorm,36
2012-5-18,85,80,74,73,71,66,82,74,65,29.97,29.93,29.90,10,10,10,9,4,15,0.00,3,,158
2012-5-19,84,78,72,73,72,70,85,77,69,29.96,29.93,29.89,10,9,2,24,7,28,0.70,5,Rain-Thunderstorm,97
2012-5-20,83,77,71,72,71,68,87,76,65,29.98,29.94,29.89,10,10,3,18,7,25,0.38,4,Rain-Thunderstorm,111
2012-5-21,85,81,76,74,72,70,82,76,69,30.00,29.96,29.93,10,10,4,18,5,23,0.20,3,Rain,123
2012-5-22,84,81,77,73,72,71,82,74,65,29.98,29.95,29.91,10,10,10,17,7,22,T,3,Rain,163
2012-5-23,86,81,76,74,72,69,79,70,61,29.93,29.87,29.83,10,10,10,17,9,21,T,5,,106
2012-5-24,85,82,78,75,74,72,85,78,70,29.93,29.84,29.80,10,10,9,17,8,22,0.01,2,Rain,32
2012-5-25,87,83,78,76,75,74,91,81,70,30.01,29.96,29.90,10,10,10,16,8,20,0.00,2,,98
2012-5-26,87,83,79,76,74,69,85,75,65,30.02,29.99,29.96,10,10,5,14,7,17,0.07,3,Rain-Thunderstorm,104
2012-5-27,85,82,78,74,72,70,85,73,61,29.99,29.96,29.91,10,10,10,10,5,24,0.00,0,,174
2012-5-28,86,83,80,73,72,70,79,74,69,29.99,29.95,29.91,10,10,10,12,6,18,0.00,1,,166
2012-5-29,87,83,78,75,73,69,79,70,61,30.00,29.96,29.92,10,10,9,13,5,16,0.04,3,Rain,189
2012-5-30,86,81,75,75,73,68,85,77,69,29.97,29.93,29.89,10,9,2,12,4,17,0.63,4,Rain,237
2012-5-31,85,82,79,75,74,72,79,74,69,29.96,29.93,29.89,10,10,10,14,8,17,0.01,6,Rain,132